sensor_id;sensor_type;location;lat;lon;timestamp;P1;durP1;ratioP1;P2;durP2;ratioP2
18853;SDS011;9556;49.374;19.446;2023-01-19T00:01:48;8.35;;;4.60;;
18853;SDS011;9556;49.374;19.446;2023-01-19T00:04:15;7.93;;;4.43;;
18853;SDS011;9556;49.374;19.446;2023-01-19T00:06:43;8.67;;;4.40;;
18853;SDS011;9556;49.374;19.446;2023-01-19T00:09:11;9.13;;;4.53;;
18853;SDS011;9556;49.374;19.446;2023-01-19T00:11:38;8.37;;;4.10;;
18853;SDS011;9556;49.374;19.446;2023-01-19T00:14:05;9.55;;;4.63;;
18853;SDS011;9556;49.374;19.446;2023-01-19T00:16:32;7.50;;;4.15;;
18853;SDS011;9556;49.374;19.446;2023-01-19T00:18:59;6.13;;;3.83;;
18853;SDS011;9556;49.374;19.446;2023-01-19T00:21:26;7.22;;;4.63;;
18853;SDS011;9556;49.374;19.446;2023-01-19T00:23:55;7.70;;;4.35;;
18853;SDS011;9556;49.374;19.446;2023-01-19T00:26:22;9.02;;;4.30;;
18853;SDS011;9556;49.374;19.446;2023-01-19T00:28:49;7.60;;;4.32;;
18853;SDS011;9556;49.374;19.446;2023-01-19T00:31:17;19.23;;;4.30;;
18853;SDS011;9556;49.374;19.446;2023-01-19T00:33:45;9.25;;;4.55;;
18853;SDS011;9556;49.374;19.446;2023-01-19T00:36:13;6.93;;;4.37;;
18853;SDS011;9556;49.374;19.446;2023-01-19T00:38:41;7.55;;;4.72;;
18853;SDS011;9556;49.374;19.446;2023-01-19T00:41:09;10.00;;;4.47;;
18853;SDS011;9556;49.374;19.446;2023-01-19T00:43:36;7.90;;;4.20;;
18853;SDS011;9556;49.374;19.446;2023-01-19T00:46:02;8.10;;;4.13;;
18853;SDS011;9556;49.374;19.446;2023-01-19T00:48:30;9.02;;;4.10;;
18853;SDS011;9556;49.374;19.446;2023-01-19T00:50:57;7.87;;;4.30;;
18853;SDS011;9556;49.374;19.446;2023-01-19T00:53:25;6.53;;;4.03;;
18853;SDS011;9556;49.374;19.446;2023-01-19T01:11:16;7.00;;;4.13;;
18853;SDS011;9556;49.374;19.446;2023-01-19T01:13:43;6.20;;;3.88;;
18853;SDS011;9556;49.374;19.446;2023-01-19T01:16:10;7.10;;;4.15;;
18853;SDS011;9556;49.374;19.446;2023-01-19T01:18:37;6.55;;;3.50;;
18853;SDS011;9556;49.374;19.446;2023-01-19T01:21:05;6.33;;;3.80;;
18853;SDS011;9556;49.374;19.446;2023-01-19T01:23:33;6.63;;;4.00;;
18853;SDS011;9556;49.374;19.446;2023-01-19T01:26:00;6.32;;;4.00;;
18853;SDS011;9556;49.374;19.446;2023-01-19T01:28:29;6.80;;;4.10;;
18853;SDS011;9556;49.374;19.446;2023-01-19T01:30:57;8.83;;;4.40;;
18853;SDS011;9556;49.374;19.446;2023-01-19T01:33:24;8.77;;;4.28;;
18853;SDS011;9556;49.374;19.446;2023-01-19T01:35:51;7.40;;;4.13;;
18853;SDS011;9556;49.374;19.446;2023-01-19T01:38:18;8.38;;;4.10;;
18853;SDS011;9556;49.374;19.446;2023-01-19T01:40:45;8.02;;;4.50;;
18853;SDS011;9556;49.374;19.446;2023-01-19T01:43:13;7.20;;;4.53;;
18853;SDS011;9556;49.374;19.446;2023-01-19T01:45:42;7.03;;;4.25;;
18853;SDS011;9556;49.374;19.446;2023-01-19T01:48:11;8.05;;;4.40;;
18853;SDS011;9556;49.374;19.446;2023-01-19T01:50:40;7.40;;;4.70;;
18853;SDS011;9556;49.374;19.446;2023-01-19T01:53:29;9.60;;;4.57;;
18853;SDS011;9556;49.374;19.446;2023-01-19T01:55:57;6.30;;;4.23;;
18853;SDS011;9556;49.374;19.446;2023-01-19T01:58:25;7.97;;;4.80;;
18853;SDS011;9556;49.374;19.446;2023-01-19T02:00:54;7.13;;;4.47;;
18853;SDS011;9556;49.374;19.446;2023-01-19T02:03:39;7.07;;;4.68;;
18853;SDS011;9556;49.374;19.446;2023-01-19T02:06:06;7.95;;;4.70;;
18853;SDS011;9556;49.374;19.446;2023-01-19T02:08:34;8.38;;;5.00;;
18853;SDS011;9556;49.374;19.446;2023-01-19T02:11:21;8.38;;;4.70;;
18853;SDS011;9556;49.374;19.446;2023-01-19T02:14:06;7.22;;;4.95;;
18853;SDS011;9556;49.374;19.446;2023-01-19T02:16:34;8.43;;;4.97;;
18853;SDS011;9556;49.374;19.446;2023-01-19T02:19:02;6.85;;;4.47;;
18853;SDS011;9556;49.374;19.446;2023-01-19T02:21:30;10.60;;;5.33;;
18853;SDS011;9556;49.374;19.446;2023-01-19T02:24:02;8.45;;;4.80;;
18853;SDS011;9556;49.374;19.446;2023-01-19T02:26:32;6.77;;;4.60;;
18853;SDS011;9556;49.374;19.446;2023-01-19T02:29:01;7.20;;;4.65;;
18853;SDS011;9556;49.374;19.446;2023-01-19T02:31:29;7.50;;;4.57;;
18853;SDS011;9556;49.374;19.446;2023-01-19T02:33:57;6.90;;;4.50;;
18853;SDS011;9556;49.374;19.446;2023-01-19T02:36:26;8.33;;;4.80;;
18853;SDS011;9556;49.374;19.446;2023-01-19T02:38:54;7.85;;;4.93;;
18853;SDS011;9556;49.374;19.446;2023-01-19T02:41:24;8.67;;;4.70;;
18853;SDS011;9556;49.374;19.446;2023-01-19T02:43:52;8.45;;;4.68;;
18853;SDS011;9556;49.374;19.446;2023-01-19T02:46:19;7.93;;;4.73;;
18853;SDS011;9556;49.374;19.446;2023-01-19T02:48:47;8.27;;;5.05;;
18853;SDS011;9556;49.374;19.446;2023-01-19T02:51:14;9.10;;;5.60;;
18853;SDS011;9556;49.374;19.446;2023-01-19T02:53:57;7.97;;;5.10;;
18853;SDS011;9556;49.374;19.446;2023-01-19T02:56:36;9.05;;;5.50;;
18853;SDS011;9556;49.374;19.446;2023-01-19T02:59:05;8.80;;;5.40;;
18853;SDS011;9556;49.374;19.446;2023-01-19T03:01:36;10.23;;;5.37;;
18853;SDS011;9556;49.374;19.446;2023-01-19T03:04:07;9.27;;;5.20;;
18853;SDS011;9556;49.374;19.446;2023-01-19T03:06:40;8.73;;;5.13;;
18853;SDS011;9556;49.374;19.446;2023-01-19T03:09:10;7.82;;;4.93;;
18853;SDS011;9556;49.374;19.446;2023-01-19T03:11:40;9.40;;;5.47;;
18853;SDS011;9556;49.374;19.446;2023-01-19T03:14:10;8.63;;;5.03;;
18853;SDS011;9556;49.374;19.446;2023-01-19T03:16:38;8.80;;;5.30;;
18853;SDS011;9556;49.374;19.446;2023-01-19T03:19:07;9.90;;;5.23;;
18853;SDS011;9556;49.374;19.446;2023-01-19T03:21:36;9.73;;;5.22;;
18853;SDS011;9556;49.374;19.446;2023-01-19T03:24:05;8.33;;;5.10;;
18853;SDS011;9556;49.374;19.446;2023-01-19T03:26:33;9.63;;;4.93;;
18853;SDS011;9556;49.374;19.446;2023-01-19T03:29:03;8.07;;;5.05;;
18853;SDS011;9556;49.374;19.446;2023-01-19T03:31:31;8.37;;;5.43;;
18853;SDS011;9556;49.374;19.446;2023-01-19T03:33:59;9.13;;;5.47;;
18853;SDS011;9556;49.374;19.446;2023-01-19T03:36:29;9.00;;;5.10;;
18853;SDS011;9556;49.374;19.446;2023-01-19T03:38:57;8.70;;;5.20;;
18853;SDS011;9556;49.374;19.446;2023-01-19T03:41:26;7.35;;;4.95;;
18853;SDS011;9556;49.374;19.446;2023-01-19T03:43:54;10.52;;;5.50;;
18853;SDS011;9556;49.374;19.446;2023-01-19T03:46:22;7.53;;;4.93;;
18853;SDS011;9556;49.374;19.446;2023-01-19T03:48:51;8.40;;;5.30;;
18853;SDS011;9556;49.374;19.446;2023-01-19T03:51:19;10.80;;;5.57;;
18853;SDS011;9556;49.374;19.446;2023-01-19T03:53:46;11.87;;;6.43;;
18853;SDS011;9556;49.374;19.446;2023-01-19T03:56:18;10.23;;;6.07;;
18853;SDS011;9556;49.374;19.446;2023-01-19T03:58:46;9.10;;;6.00;;
18853;SDS011;9556;49.374;19.446;2023-01-19T04:04:18;8.77;;;5.50;;
18853;SDS011;9556;49.374;19.446;2023-01-19T04:06:45;9.80;;;5.37;;
18853;SDS011;9556;49.374;19.446;2023-01-19T04:09:12;10.03;;;5.60;;
18853;SDS011;9556;49.374;19.446;2023-01-19T04:11:39;8.57;;;5.10;;
18853;SDS011;9556;49.374;19.446;2023-01-19T04:14:06;7.73;;;4.83;;
18853;SDS011;9556;49.374;19.446;2023-01-19T04:16:33;9.70;;;5.63;;
18853;SDS011;9556;49.374;19.446;2023-01-19T04:19:01;12.43;;;6.83;;
18853;SDS011;9556;49.374;19.446;2023-01-19T04:21:29;11.47;;;6.77;;
18853;SDS011;9556;49.374;19.446;2023-01-19T04:23:56;13.37;;;7.20;;
18853;SDS011;9556;49.374;19.446;2023-01-19T04:26:23;10.27;;;6.97;;
18853;SDS011;9556;49.374;19.446;2023-01-19T04:28:50;12.10;;;6.82;;
18853;SDS011;9556;49.374;19.446;2023-01-19T04:31:18;8.83;;;5.47;;
18853;SDS011;9556;49.374;19.446;2023-01-19T04:33:46;10.63;;;6.60;;
18853;SDS011;9556;49.374;19.446;2023-01-19T04:36:13;11.10;;;7.27;;
18853;SDS011;9556;49.374;19.446;2023-01-19T04:38:42;11.33;;;7.17;;
18853;SDS011;9556;49.374;19.446;2023-01-19T04:41:10;11.23;;;7.20;;
18853;SDS011;9556;49.374;19.446;2023-01-19T04:43:37;12.70;;;8.07;;
18853;SDS011;9556;49.374;19.446;2023-01-19T04:46:05;15.40;;;9.30;;
18853;SDS011;9556;49.374;19.446;2023-01-19T04:48:32;16.33;;;9.03;;
18853;SDS011;9556;49.374;19.446;2023-01-19T04:50:59;14.73;;;9.13;;
18853;SDS011;9556;49.374;19.446;2023-01-19T04:53:26;17.08;;;10.07;;
18853;SDS011;9556;49.374;19.446;2023-01-19T04:55:54;21.20;;;11.43;;
18853;SDS011;9556;49.374;19.446;2023-01-19T04:58:23;57.50;;;30.40;;
18853;SDS011;9556;49.374;19.446;2023-01-19T05:00:51;47.23;;;25.97;;
18853;SDS011;9556;49.374;19.446;2023-01-19T05:03:18;41.63;;;23.00;;
18853;SDS011;9556;49.374;19.446;2023-01-19T05:05:45;46.43;;;25.50;;
18853;SDS011;9556;49.374;19.446;2023-01-19T05:08:12;42.50;;;22.50;;
18853;SDS011;9556;49.374;19.446;2023-01-19T05:10:39;40.08;;;20.83;;
18853;SDS011;9556;49.374;19.446;2023-01-19T05:13:08;44.77;;;21.10;;
18853;SDS011;9556;49.374;19.446;2023-01-19T05:15:35;42.93;;;21.07;;
18853;SDS011;9556;49.374;19.446;2023-01-19T05:18:02;36.93;;;16.97;;
18853;SDS011;9556;49.374;19.446;2023-01-19T05:20:29;32.37;;;14.97;;
18853;SDS011;9556;49.374;19.446;2023-01-19T05:22:56;29.37;;;14.07;;
18853;SDS011;9556;49.374;19.446;2023-01-19T05:25:23;33.53;;;13.70;;
18853;SDS011;9556;49.374;19.446;2023-01-19T05:27:51;27.77;;;12.97;;
18853;SDS011;9556;49.374;19.446;2023-01-19T05:30:19;26.67;;;13.47;;
18853;SDS011;9556;49.374;19.446;2023-01-19T05:32:46;26.93;;;12.17;;
18853;SDS011;9556;49.374;19.446;2023-01-19T05:35:13;23.30;;;11.52;;
18853;SDS011;9556;49.374;19.446;2023-01-19T05:37:41;27.73;;;12.07;;
18853;SDS011;9556;49.374;19.446;2023-01-19T05:40:08;22.90;;;10.75;;
18853;SDS011;9556;49.374;19.446;2023-01-19T05:42:36;23.60;;;11.87;;
18853;SDS011;9556;49.374;19.446;2023-01-19T05:45:03;23.80;;;11.93;;
18853;SDS011;9556;49.374;19.446;2023-01-19T05:47:32;29.75;;;15.40;;
18853;SDS011;9556;49.374;19.446;2023-01-19T05:49:59;32.70;;;18.37;;
18853;SDS011;9556;49.374;19.446;2023-01-19T05:52:26;34.77;;;18.07;;
18853;SDS011;9556;49.374;19.446;2023-01-19T05:54:54;39.78;;;21.40;;
18853;SDS011;9556;49.374;19.446;2023-01-19T05:57:21;44.63;;;21.35;;
18853;SDS011;9556;49.374;19.446;2023-01-19T05:59:48;38.60;;;20.87;;
18853;SDS011;9556;49.374;19.446;2023-01-19T06:02:15;31.73;;;17.20;;
18853;SDS011;9556;49.374;19.446;2023-01-19T06:04:44;35.92;;;15.57;;
18853;SDS011;9556;49.374;19.446;2023-01-19T06:07:11;31.77;;;15.03;;
18853;SDS011;9556;49.374;19.446;2023-01-19T06:09:38;31.85;;;14.18;;
18853;SDS011;9556;49.374;19.446;2023-01-19T06:12:05;26.85;;;14.85;;
18853;SDS011;9556;49.374;19.446;2023-01-19T06:14:32;33.00;;;18.05;;
18853;SDS011;9556;49.374;19.446;2023-01-19T06:17:01;33.83;;;17.53;;
18853;SDS011;9556;49.374;19.446;2023-01-19T06:19:30;31.73;;;17.20;;
18853;SDS011;9556;49.374;19.446;2023-01-19T06:21:58;34.53;;;18.40;;
18853;SDS011;9556;49.374;19.446;2023-01-19T06:24:25;38.60;;;16.20;;
18853;SDS011;9556;49.374;19.446;2023-01-19T06:26:53;42.10;;;18.70;;
18853;SDS011;9556;49.374;19.446;2023-01-19T06:29:20;36.58;;;15.82;;
18853;SDS011;9556;49.374;19.446;2023-01-19T06:31:48;33.20;;;13.97;;
18853;SDS011;9556;49.374;19.446;2023-01-19T06:34:15;27.13;;;14.60;;
18853;SDS011;9556;49.374;19.446;2023-01-19T06:36:43;28.27;;;13.93;;
18853;SDS011;9556;49.374;19.446;2023-01-19T06:39:11;27.27;;;13.80;;
18853;SDS011;9556;49.374;19.446;2023-01-19T06:41:39;28.07;;;14.13;;
18853;SDS011;9556;49.374;19.446;2023-01-19T06:44:06;31.37;;;15.70;;
18853;SDS011;9556;49.374;19.446;2023-01-19T06:46:33;28.95;;;14.20;;
18853;SDS011;9556;49.374;19.446;2023-01-19T06:49:01;24.13;;;13.93;;
18853;SDS011;9556;49.374;19.446;2023-01-19T06:51:28;24.75;;;14.32;;
18853;SDS011;9556;49.374;19.446;2023-01-19T06:53:55;25.57;;;13.20;;
18853;SDS011;9556;49.374;19.446;2023-01-19T06:56:24;23.75;;;14.00;;
18853;SDS011;9556;49.374;19.446;2023-01-19T06:58:51;23.50;;;13.57;;
18853;SDS011;9556;49.374;19.446;2023-01-19T07:01:19;25.37;;;12.77;;
18853;SDS011;9556;49.374;19.446;2023-01-19T07:03:46;21.77;;;10.90;;
18853;SDS011;9556;49.374;19.446;2023-01-19T07:06:13;22.40;;;11.80;;
18853;SDS011;9556;49.374;19.446;2023-01-19T07:08:40;20.85;;;11.40;;
18853;SDS011;9556;49.374;19.446;2023-01-19T07:11:08;20.15;;;11.95;;
18853;SDS011;9556;49.374;19.446;2023-01-19T07:13:38;17.55;;;10.68;;
18853;SDS011;9556;49.374;19.446;2023-01-19T07:16:06;22.70;;;10.98;;
18853;SDS011;9556;49.374;19.446;2023-01-19T07:18:33;18.40;;;9.93;;
18853;SDS011;9556;49.374;19.446;2023-01-19T07:21:01;16.33;;;10.00;;
18853;SDS011;9556;49.374;19.446;2023-01-19T07:23:28;19.17;;;10.87;;
18853;SDS011;9556;49.374;19.446;2023-01-19T07:25:55;21.00;;;10.70;;
18853;SDS011;9556;49.374;19.446;2023-01-19T07:28:22;18.08;;;11.02;;
18853;SDS011;9556;49.374;19.446;2023-01-19T07:30:51;19.27;;;11.47;;
18853;SDS011;9556;49.374;19.446;2023-01-19T07:33:18;24.15;;;10.05;;
18853;SDS011;9556;49.374;19.446;2023-01-19T07:35:46;19.13;;;10.03;;
18853;SDS011;9556;49.374;19.446;2023-01-19T07:38:13;16.40;;;9.95;;
18853;SDS011;9556;49.374;19.446;2023-01-19T07:40:41;17.23;;;10.30;;
18853;SDS011;9556;49.374;19.446;2023-01-19T07:43:08;15.13;;;9.18;;
18853;SDS011;9556;49.374;19.446;2023-01-19T07:45:35;16.55;;;9.20;;
18853;SDS011;9556;49.374;19.446;2023-01-19T07:48:04;13.93;;;8.75;;
18853;SDS011;9556;49.374;19.446;2023-01-19T07:50:31;13.15;;;7.95;;
18853;SDS011;9556;49.374;19.446;2023-01-19T07:53:03;14.30;;;7.80;;
18853;SDS011;9556;49.374;19.446;2023-01-19T07:55:30;14.27;;;7.18;;
18853;SDS011;9556;49.374;19.446;2023-01-19T07:57:57;11.27;;;7.27;;
18853;SDS011;9556;49.374;19.446;2023-01-19T08:00:24;10.77;;;6.53;;
18853;SDS011;9556;49.374;19.446;2023-01-19T08:02:51;10.65;;;6.60;;
18853;SDS011;9556;49.374;19.446;2023-01-19T08:05:20;9.87;;;6.40;;
18853;SDS011;9556;49.374;19.446;2023-01-19T08:07:47;12.95;;;6.28;;
18853;SDS011;9556;49.374;19.446;2023-01-19T08:10:15;9.00;;;6.30;;
18853;SDS011;9556;49.374;19.446;2023-01-19T08:12:42;10.23;;;5.93;;
18853;SDS011;9556;49.374;19.446;2023-01-19T08:15:09;10.27;;;5.88;;
18853;SDS011;9556;49.374;19.446;2023-01-19T08:17:36;11.55;;;6.75;;
18853;SDS011;9556;49.374;19.446;2023-01-19T08:20:04;9.38;;;6.35;;
18853;SDS011;9556;49.374;19.446;2023-01-19T08:22:34;10.90;;;6.90;;
18853;SDS011;9556;49.374;19.446;2023-01-19T08:25:01;11.13;;;7.35;;
18853;SDS011;9556;49.374;19.446;2023-01-19T08:27:29;12.25;;;6.43;;
18853;SDS011;9556;49.374;19.446;2023-01-19T08:29:56;9.77;;;6.28;;
18853;SDS011;9556;49.374;19.446;2023-01-19T08:32:23;10.25;;;6.40;;
18853;SDS011;9556;49.374;19.446;2023-01-19T08:34:51;10.18;;;6.05;;
18853;SDS011;9556;49.374;19.446;2023-01-19T08:37:18;11.20;;;5.90;;
18853;SDS011;9556;49.374;19.446;2023-01-19T08:39:47;8.65;;;5.72;;
18853;SDS011;9556;49.374;19.446;2023-01-19T08:42:14;11.80;;;6.07;;
18853;SDS011;9556;49.374;19.446;2023-01-19T08:44:41;11.05;;;6.03;;
18853;SDS011;9556;49.374;19.446;2023-01-19T08:47:08;8.27;;;5.47;;
18853;SDS011;9556;49.374;19.446;2023-01-19T08:49:35;7.82;;;5.47;;
18853;SDS011;9556;49.374;19.446;2023-01-19T08:52:03;7.65;;;5.22;;
18853;SDS011;9556;49.374;19.446;2023-01-19T08:54:30;8.35;;;4.93;;
18853;SDS011;9556;49.374;19.446;2023-01-19T08:56:59;10.13;;;4.85;;
18853;SDS011;9556;49.374;19.446;2023-01-19T08:59:26;7.72;;;4.50;;
18853;SDS011;9556;49.374;19.446;2023-01-19T09:01:53;7.13;;;4.55;;
18853;SDS011;9556;49.374;19.446;2023-01-19T09:04:20;9.18;;;4.72;;
18853;SDS011;9556;49.374;19.446;2023-01-19T09:06:49;7.57;;;4.40;;
18853;SDS011;9556;49.374;19.446;2023-01-19T09:09:16;7.05;;;4.70;;
18853;SDS011;9556;49.374;19.446;2023-01-19T09:11:43;9.00;;;4.78;;
18853;SDS011;9556;49.374;19.446;2023-01-19T09:14:12;8.82;;;4.32;;
18853;SDS011;9556;49.374;19.446;2023-01-19T09:16:39;6.67;;;4.30;;
18853;SDS011;9556;49.374;19.446;2023-01-19T09:19:07;9.90;;;4.33;;
18853;SDS011;9556;49.374;19.446;2023-01-19T09:21:34;8.03;;;4.47;;
18853;SDS011;9556;49.374;19.446;2023-01-19T09:24:01;8.30;;;4.40;;
18853;SDS011;9556;49.374;19.446;2023-01-19T09:26:29;6.67;;;4.13;;
18853;SDS011;9556;49.374;19.446;2023-01-19T09:28:56;7.22;;;4.32;;
18853;SDS011;9556;49.374;19.446;2023-01-19T09:31:25;7.53;;;4.37;;
18853;SDS011;9556;49.374;19.446;2023-01-19T09:33:52;6.95;;;4.47;;
18853;SDS011;9556;49.374;19.446;2023-01-19T09:36:19;7.60;;;4.27;;
18853;SDS011;9556;49.374;19.446;2023-01-19T09:38:46;11.10;;;4.03;;
18853;SDS011;9556;49.374;19.446;2023-01-19T09:41:16;7.00;;;4.32;;
18853;SDS011;9556;49.374;19.446;2023-01-19T09:43:45;7.13;;;4.33;;
18853;SDS011;9556;49.374;19.446;2023-01-19T09:46:14;6.90;;;4.38;;
18853;SDS011;9556;49.374;19.446;2023-01-19T09:48:44;7.65;;;4.78;;
18853;SDS011;9556;49.374;19.446;2023-01-19T09:51:14;7.90;;;4.10;;
18853;SDS011;9556;49.374;19.446;2023-01-19T09:53:46;5.47;;;3.78;;
18853;SDS011;9556;49.374;19.446;2023-01-19T09:56:16;12.30;;;4.23;;
18853;SDS011;9556;49.374;19.446;2023-01-19T09:58:46;5.55;;;3.78;;
18853;SDS011;9556;49.374;19.446;2023-01-19T10:04:04;10.57;;;3.77;;
18853;SDS011;9556;49.374;19.446;2023-01-19T10:06:34;5.57;;;3.40;;
18853;SDS011;9556;49.374;19.446;2023-01-19T10:09:03;6.10;;;3.53;;
18853;SDS011;9556;49.374;19.446;2023-01-19T10:11:33;8.83;;;4.00;;
18853;SDS011;9556;49.374;19.446;2023-01-19T10:14:02;15.57;;;3.95;;
18853;SDS011;9556;49.374;19.446;2023-01-19T10:16:33;9.18;;;4.15;;
18853;SDS011;9556;49.374;19.446;2023-01-19T10:19:11;7.28;;;4.07;;
18853;SDS011;9556;49.374;19.446;2023-01-19T10:21:43;6.63;;;4.15;;
18853;SDS011;9556;49.374;19.446;2023-01-19T10:24:12;8.93;;;3.70;;
18853;SDS011;9556;49.374;19.446;2023-01-19T10:26:42;6.20;;;3.88;;
18853;SDS011;9556;49.374;19.446;2023-01-19T10:29:12;6.00;;;3.50;;
18853;SDS011;9556;49.374;19.446;2023-01-19T10:31:43;7.73;;;4.00;;
18853;SDS011;9556;49.374;19.446;2023-01-19T10:34:13;11.43;;;6.30;;
18853;SDS011;9556;49.374;19.446;2023-01-19T10:36:43;22.60;;;11.93;;
18853;SDS011;9556;49.374;19.446;2023-01-19T10:39:12;20.38;;;8.73;;
18853;SDS011;9556;49.374;19.446;2023-01-19T10:41:41;16.58;;;9.80;;
18853;SDS011;9556;49.374;19.446;2023-01-19T10:44:09;10.80;;;6.47;;
18853;SDS011;9556;49.374;19.446;2023-01-19T10:46:37;9.70;;;6.05;;
18853;SDS011;9556;49.374;19.446;2023-01-19T10:49:21;10.38;;;6.30;;
18853;SDS011;9556;49.374;19.446;2023-01-19T10:51:49;11.07;;;5.90;;
18853;SDS011;9556;49.374;19.446;2023-01-19T10:54:16;9.48;;;6.20;;
18853;SDS011;9556;49.374;19.446;2023-01-19T10:56:44;9.23;;;4.97;;
18853;SDS011;9556;49.374;19.446;2023-01-19T10:59:28;8.13;;;5.68;;
18853;SDS011;9556;49.374;19.446;2023-01-19T11:02:01;8.88;;;5.57;;
18853;SDS011;9556;49.374;19.446;2023-01-19T11:04:30;11.13;;;5.57;;
18853;SDS011;9556;49.374;19.446;2023-01-19T11:07:09;8.60;;;5.38;;
18853;SDS011;9556;49.374;19.446;2023-01-19T11:09:38;11.77;;;5.10;;
18853;SDS011;9556;49.374;19.446;2023-01-19T11:12:07;9.30;;;5.20;;
18853;SDS011;9556;49.374;19.446;2023-01-19T11:14:41;7.75;;;4.75;;
18853;SDS011;9556;49.374;19.446;2023-01-19T11:17:14;11.68;;;4.45;;
18853;SDS011;9556;49.374;19.446;2023-01-19T11:19:50;9.98;;;4.45;;
18853;SDS011;9556;49.374;19.446;2023-01-19T11:22:19;8.07;;;5.00;;
18853;SDS011;9556;49.374;19.446;2023-01-19T11:24:47;8.95;;;5.47;;
18853;SDS011;9556;49.374;19.446;2023-01-19T11:27:15;10.93;;;6.00;;
18853;SDS011;9556;49.374;19.446;2023-01-19T11:29:45;7.53;;;5.00;;
18853;SDS011;9556;49.374;19.446;2023-01-19T11:32:18;6.72;;;4.65;;
18853;SDS011;9556;49.374;19.446;2023-01-19T11:34:47;7.15;;;4.85;;
18853;SDS011;9556;49.374;19.446;2023-01-19T11:37:25;9.68;;;5.28;;
18853;SDS011;9556;49.374;19.446;2023-01-19T11:39:54;8.75;;;5.40;;
18853;SDS011;9556;49.374;19.446;2023-01-19T11:42:21;7.33;;;4.90;;
18853;SDS011;9556;49.374;19.446;2023-01-19T11:44:52;11.93;;;5.40;;
18853;SDS011;9556;49.374;19.446;2023-01-19T11:47:22;17.53;;;8.93;;
18853;SDS011;9556;49.374;19.446;2023-01-19T11:49:55;16.67;;;9.80;;
18853;SDS011;9556;49.374;19.446;2023-01-19T11:52:25;19.90;;;11.10;;
18853;SDS011;9556;49.374;19.446;2023-01-19T11:54:53;14.40;;;8.35;;
18853;SDS011;9556;49.374;19.446;2023-01-19T11:57:21;18.10;;;9.63;;
18853;SDS011;9556;49.374;19.446;2023-01-19T11:59:49;18.80;;;10.98;;
18853;SDS011;9556;49.374;19.446;2023-01-19T12:02:19;16.08;;;8.20;;
18853;SDS011;9556;49.374;19.446;2023-01-19T12:04:48;13.52;;;8.27;;
18853;SDS011;9556;49.374;19.446;2023-01-19T12:07:21;13.18;;;8.35;;
18853;SDS011;9556;49.374;19.446;2023-01-19T12:09:50;12.90;;;8.35;;
18853;SDS011;9556;49.374;19.446;2023-01-19T12:12:22;14.23;;;7.72;;
18853;SDS011;9556;49.374;19.446;2023-01-19T12:14:51;12.80;;;7.10;;
18853;SDS011;9556;49.374;19.446;2023-01-19T12:17:22;11.57;;;5.60;;
18853;SDS011;9556;49.374;19.446;2023-01-19T12:19:53;7.32;;;5.05;;
18853;SDS011;9556;49.374;19.446;2023-01-19T12:22:22;8.93;;;5.40;;
18853;SDS011;9556;49.374;19.446;2023-01-19T12:24:53;8.90;;;6.15;;
18853;SDS011;9556;49.374;19.446;2023-01-19T12:27:26;8.63;;;5.68;;
18853;SDS011;9556;49.374;19.446;2023-01-19T12:30:01;8.27;;;5.40;;
18853;SDS011;9556;49.374;19.446;2023-01-19T12:32:31;8.45;;;5.10;;
18853;SDS011;9556;49.374;19.446;2023-01-19T12:34:58;9.48;;;5.97;;
18853;SDS011;9556;49.374;19.446;2023-01-19T12:37:35;7.95;;;5.03;;
18853;SDS011;9556;49.374;19.446;2023-01-19T12:40:03;7.77;;;5.60;;
18853;SDS011;9556;49.374;19.446;2023-01-19T12:42:43;8.93;;;5.28;;
18853;SDS011;9556;49.374;19.446;2023-01-19T12:45:12;9.57;;;5.22;;
18853;SDS011;9556;49.374;19.446;2023-01-19T12:47:42;7.03;;;4.95;;
18853;SDS011;9556;49.374;19.446;2023-01-19T12:50:16;8.48;;;5.07;;
18853;SDS011;9556;49.374;19.446;2023-01-19T12:52:48;8.63;;;5.50;;
18853;SDS011;9556;49.374;19.446;2023-01-19T12:55:21;9.32;;;5.68;;
18853;SDS011;9556;49.374;19.446;2023-01-19T12:57:50;10.50;;;6.65;;
18853;SDS011;9556;49.374;19.446;2023-01-19T13:00:30;10.25;;;7.00;;
18853;SDS011;9556;49.374;19.446;2023-01-19T13:02:58;10.18;;;7.00;;
18853;SDS011;9556;49.374;19.446;2023-01-19T13:08:25;10.13;;;6.97;;
18853;SDS011;9556;49.374;19.446;2023-01-19T13:19:35;16.88;;;9.90;;
18853;SDS011;9556;49.374;19.446;2023-01-19T13:25:05;12.07;;;7.70;;
18853;SDS011;9556;49.374;19.446;2023-01-19T13:27:33;10.17;;;6.60;;
18853;SDS011;9556;49.374;19.446;2023-01-19T13:30:00;11.35;;;6.50;;
18853;SDS011;9556;49.374;19.446;2023-01-19T13:32:28;8.98;;;5.80;;
18853;SDS011;9556;49.374;19.446;2023-01-19T13:34:55;7.88;;;5.30;;
18853;SDS011;9556;49.374;19.446;2023-01-19T13:37:34;11.13;;;7.13;;
18853;SDS011;9556;49.374;19.446;2023-01-19T13:40:01;9.60;;;6.53;;
18853;SDS011;9556;49.374;19.446;2023-01-19T13:42:31;9.60;;;6.57;;
18853;SDS011;9556;49.374;19.446;2023-01-19T13:45:00;8.88;;;5.90;;
18853;SDS011;9556;49.374;19.446;2023-01-19T13:47:31;9.48;;;6.18;;
18853;SDS011;9556;49.374;19.446;2023-01-19T13:50:01;9.05;;;6.32;;
18853;SDS011;9556;49.374;19.446;2023-01-19T13:52:29;7.93;;;5.38;;
18853;SDS011;9556;49.374;19.446;2023-01-19T13:54:57;10.10;;;7.40;;
18853;SDS011;9556;49.374;19.446;2023-01-19T13:57:25;8.50;;;6.18;;
18853;SDS011;9556;49.374;19.446;2023-01-19T14:00:12;10.83;;;6.07;;
18853;SDS011;9556;49.374;19.446;2023-01-19T14:02:49;9.80;;;6.70;;
18853;SDS011;9556;49.374;19.446;2023-01-19T14:05:19;9.10;;;6.25;;
18853;SDS011;9556;49.374;19.446;2023-01-19T14:07:47;8.88;;;6.00;;
18853;SDS011;9556;49.374;19.446;2023-01-19T14:10:25;8.45;;;6.00;;
18853;SDS011;9556;49.374;19.446;2023-01-19T14:12:56;10.75;;;6.40;;
18853;SDS011;9556;49.374;19.446;2023-01-19T14:15:25;9.98;;;6.90;;
18853;SDS011;9556;49.374;19.446;2023-01-19T14:18:09;9.65;;;6.68;;
18853;SDS011;9556;49.374;19.446;2023-01-19T14:20:37;10.10;;;7.00;;
18853;SDS011;9556;49.374;19.446;2023-01-19T14:23:05;9.85;;;6.53;;
18853;SDS011;9556;49.374;19.446;2023-01-19T14:25:33;8.88;;;6.35;;
18853;SDS011;9556;49.374;19.446;2023-01-19T14:30:54;21.13;;;11.68;;
18853;SDS011;9556;49.374;19.446;2023-01-19T14:33:39;23.95;;;10.45;;
18853;SDS011;9556;49.374;19.446;2023-01-19T14:36:18;23.48;;;14.60;;
18853;SDS011;9556;49.374;19.446;2023-01-19T14:38:49;24.63;;;13.55;;
18853;SDS011;9556;49.374;19.446;2023-01-19T14:41:21;33.35;;;12.90;;
18853;SDS011;9556;49.374;19.446;2023-01-19T14:43:49;20.75;;;13.07;;
18853;SDS011;9556;49.374;19.446;2023-01-19T14:46:20;29.35;;;14.10;;
18853;SDS011;9556;49.374;19.446;2023-01-19T14:48:48;24.58;;;14.00;;
18853;SDS011;9556;49.374;19.446;2023-01-19T14:51:17;20.75;;;12.32;;
18853;SDS011;9556;49.374;19.446;2023-01-19T14:53:45;22.58;;;13.38;;
18853;SDS011;9556;49.374;19.446;2023-01-19T14:56:13;23.77;;;14.03;;
18853;SDS011;9556;49.374;19.446;2023-01-19T14:58:49;24.45;;;13.45;;
18853;SDS011;9556;49.374;19.446;2023-01-19T15:01:16;23.45;;;13.20;;
18853;SDS011;9556;49.374;19.446;2023-01-19T15:03:45;23.93;;;13.00;;
18853;SDS011;9556;49.374;19.446;2023-01-19T15:06:12;21.67;;;12.03;;
18853;SDS011;9556;49.374;19.446;2023-01-19T15:08:40;26.40;;;11.65;;
18853;SDS011;9556;49.374;19.446;2023-01-19T15:11:08;20.63;;;11.77;;
18853;SDS011;9556;49.374;19.446;2023-01-19T15:13:36;78.10;;;42.88;;
18853;SDS011;9556;49.374;19.446;2023-01-19T15:16:04;58.93;;;31.10;;
18853;SDS011;9556;49.374;19.446;2023-01-19T15:18:32;53.47;;;27.87;;
18853;SDS011;9556;49.374;19.446;2023-01-19T15:21:01;35.77;;;20.30;;
18853;SDS011;9556;49.374;19.446;2023-01-19T15:23:29;34.17;;;17.93;;
18853;SDS011;9556;49.374;19.446;2023-01-19T15:25:57;31.93;;;16.40;;
18853;SDS011;9556;49.374;19.446;2023-01-19T15:28:25;23.87;;;15.10;;